Time;durP1;ratioP1;P1;durP2;ratioP2;P2;SDS_P1;SDS_P2;PMS_P1;PMS_P2;Temp;Humidity;BMP_temperature;BMP_pressure;BME280_temperature;BME280_humidity;BME280_pressure;Samples;Min_cycle;Max_cycle;Signal;HPM_P1;HPM_P2
2021/06/10 00:01:02;;;;;;;20.07;10.63;;;;;;;;;;5084633;28;20054;-68
2021/06/10 00:03:27;;;;;;;22.87;11.17;;;;;;;;;;5089236;28;20016;-68
2021/06/10 00:05:52;;;;;;;18.90;10.03;;;;;;;;;;5091618;28;20365;-69
2021/06/10 00:08:18;;;;;;;19.27;9.87;;;;;;;;;;5090957;28;20017;-68
2021/06/10 00:10:44;;;;;;;22.27;10.97;;;;;;;;;;5091420;28;20015;-68
2021/06/10 00:13:09;;;;;;;20.63;11.00;;;;;;;;;;5089926;28;20043;-68
2021/06/10 00:15:35;;;;;;;24.37;10.50;;;;;;;;;;5090926;28;20047;-68
2021/06/10 00:18:02;;;;;;;20.20;9.57;;;;;;;;;;5089845;28;20066;-68
2021/06/10 00:20:28;;;;;;;24.40;10.70;;;;;;;;;;5091083;28;20043;-68
2021/06/10 00:22:55;;;;;;;19.93;9.90;;;;;;;;;;5086399;28;20016;-68
2021/06/10 00:25:20;;;;;;;20.17;10.03;;;;;;;;;;5088423;28;20020;-68
2021/06/10 00:27:47;;;;;;;21.67;10.73;;;;;;;;;;5090608;28;20020;-68
2021/06/10 00:30:15;;;;;;;22.10;10.50;;;;;;;;;;5093666;28;20060;-68
2021/06/10 00:32:41;;;;;;;20.60;9.87;;;;;;;;;;5091134;28;20028;-69
2021/06/10 00:35:07;;;;;;;21.67;10.80;;;;;;;;;;5090874;28;20073;-68
2021/06/10 00:37:32;;;;;;;21.00;10.73;;;;;;;;;;5085482;28;20031;-68
2021/06/10 00:39:58;;;;;;;20.43;10.20;;;;;;;;;;5090128;28;20472;-68
2021/06/10 00:42:23;;;;;;;23.50;10.70;;;;;;;;;;5090460;28;20303;-68
2021/06/10 00:44:49;;;;;;;25.50;10.87;;;;;;;;;;5090855;28;20055;-68
2021/06/10 00:47:14;;;;;;;23.97;11.33;;;;;;;;;;5091649;28;20028;-68
2021/06/10 00:49:39;;;;;;;27.10;12.00;;;;;;;;;;5090804;28;20058;-68
2021/06/10 00:52:05;;;;;;;23.33;11.17;;;;;;;;;;5087200;28;20036;-68
2021/06/10 00:54:30;;;;;;;21.97;11.20;;;;;;;;;;5082753;28;20115;-68
2021/06/10 00:56:56;;;;;;;24.10;12.20;;;;;;;;;;5089493;28;20055;-68
2021/06/10 00:59:21;;;;;;;24.03;12.40;;;;;;;;;;5090152;28;20032;-68
2021/06/10 01:01:47;;;;;;;26.17;11.90;;;;;;;;;;5090149;28;20028;-68
2021/06/10 01:04:12;;;;;;;20.10;11.07;;;;;;;;;;5089225;28;20048;-68
2021/06/10 01:06:50;;;;;;;28.23;12.30;;;;;;;;;;5089391;28;20098;-68
2021/06/10 01:09:24;;;;;;;23.97;11.30;;;;;;;;;;5089323;28;20039;-68
2021/06/10 01:12:02;;;;;;;23.27;11.40;;;;;;;;;;5090413;28;20031;-68
2021/06/10 01:14:46;;;;;;;22.40;11.10;;;;;;;;;;5087758;28;20533;-68
2021/06/10 01:17:12;;;;;;;24.87;11.97;;;;;;;;;;5086284;28;20063;-68
2021/06/10 01:20:00;;;;;;;24.73;11.77;;;;;;;;;;5089104;28;20040;-68
2021/06/10 01:22:33;;;;;;;25.57;12.43;;;;;;;;;;5087080;28;20027;-68
2021/06/10 01:25:34;;;;;;;24.17;11.70;;;;;;;;;;5089450;28;20488;-68
2021/06/10 01:28:33;;;;;;;27.83;11.80;;;;;;;;;;5009274;28;20045;-68
2021/06/10 01:30:59;;;;;;;24.37;12.07;;;;;;;;;;4986690;28;20026;-68
2021/06/10 01:33:45;;;;;;;26.63;11.50;;;;;;;;;;5008164;28;20088;-68
2021/06/10 01:36:12;;;;;;;24.30;11.40;;;;;;;;;;4931993;29;20489;-68
2021/06/10 01:38:39;;;;;;;25.93;11.90;;;;;;;;;;4927475;29;20059;-68
2021/06/10 01:41:04;;;;;;;30.73;12.83;;;;;;;;;;4931453;29;20222;-68
2021/06/10 01:43:33;;;;;;;28.07;12.13;;;;;;;;;;4930861;29;20483;-68
2021/06/10 01:45:58;;;;;;;26.17;12.13;;;;;;;;;;4934632;29;20111;-68
2021/06/10 01:48:24;;;;;;;27.57;12.30;;;;;;;;;;4929515;29;20560;-69
2021/06/10 01:50:51;;;;;;;29.33;13.50;;;;;;;;;;4937673;29;20046;-69
2021/06/10 01:53:17;;;;;;;29.23;12.53;;;;;;;;;;4935053;29;20042;-69
2021/06/10 01:55:44;;;;;;;27.47;13.40;;;;;;;;;;4930733;29;20050;-68
2021/06/10 01:58:10;;;;;;;34.20;13.77;;;;;;;;;;4931653;29;20421;-69
2021/06/10 02:00:36;;;;;;;29.73;14.23;;;;;;;;;;4932374;29;20135;-68
2021/06/10 02:03:02;;;;;;;34.97;15.40;;;;;;;;;;4966185;28;20066;-69
2021/06/10 02:05:28;;;;;;;28.47;12.67;;;;;;;;;;4952612;28;20501;-69
2021/06/10 02:07:53;;;;;;;32.53;13.77;;;;;;;;;;4950198;28;20506;-68
2021/06/10 02:10:21;;;;;;;30.20;14.07;;;;;;;;;;4948460;28;20280;-69
2021/06/10 02:12:46;;;;;;;30.50;13.97;;;;;;;;;;4985813;28;20044;-69
2021/06/10 02:15:12;;;;;;;31.60;13.90;;;;;;;;;;5053835;28;20028;-68
2021/06/10 02:17:38;;;;;;;36.00;14.67;;;;;;;;;;5052926;28;20032;-69
2021/06/10 02:20:04;;;;;;;32.80;14.80;;;;;;;;;;5060352;28;20059;-69
2021/06/10 02:22:30;;;;;;;34.53;16.03;;;;;;;;;;5061405;28;20092;-69
2021/06/10 02:24:55;;;;;;;35.27;15.50;;;;;;;;;;5053165;28;20112;-69
2021/06/10 02:27:20;;;;;;;38.60;15.27;;;;;;;;;;5061068;28;20024;-69
2021/06/10 02:29:46;;;;;;;35.43;14.57;;;;;;;;;;5061562;28;20037;-68
2021/06/10 02:32:11;;;;;;;32.60;14.93;;;;;;;;;;5055504;28;20083;-68
2021/06/10 02:34:37;;;;;;;34.30;15.10;;;;;;;;;;5062918;28;20389;-68
2021/06/10 02:37:04;;;;;;;37.80;15.27;;;;;;;;;;5061300;28;20029;-68
2021/06/10 02:39:29;;;;;;;37.90;16.13;;;;;;;;;;5065019;28;20031;-68
2021/06/10 02:41:56;;;;;;;40.93;16.10;;;;;;;;;;5057898;28;20037;-68
2021/06/10 02:44:24;;;;;;;37.70;15.17;;;;;;;;;;5066307;28;20028;-68
2021/06/10 02:46:50;;;;;;;44.17;14.80;;;;;;;;;;5054662;28;20017;-68
2021/06/10 02:49:17;;;;;;;36.50;14.63;;;;;;;;;;5064558;28;20036;-68
2021/06/10 02:51:42;;;;;;;42.90;15.57;;;;;;;;;;5061690;28;20725;-68
2021/06/10 02:54:10;;;;;;;38.80;15.73;;;;;;;;;;5068590;28;20135;-68
2021/06/10 02:56:36;;;;;;;39.87;15.23;;;;;;;;;;5062223;28;20488;-68
2021/06/10 02:59:03;;;;;;;40.17;17.00;;;;;;;;;;5062901;28;20032;-68
2021/06/10 03:01:35;;;;;;;38.80;15.97;;;;;;;;;;5060117;28;20021;-68
2021/06/10 03:04:00;;;;;;;39.03;15.93;;;;;;;;;;5071575;28;20024;-68
2021/06/10 03:06:26;;;;;;;38.67;15.23;;;;;;;;;;5092733;28;20373;-68
2021/06/10 03:08:51;;;;;;;34.03;16.00;;;;;;;;;;5090760;28;20031;-68
2021/06/10 03:11:17;;;;;;;36.33;15.80;;;;;;;;;;5090992;28;20626;-68
2021/06/10 03:13:43;;;;;;;42.83;15.73;;;;;;;;;;5092894;28;20024;-68
2021/06/10 03:16:09;;;;;;;42.20;16.00;;;;;;;;;;5091573;28;20133;-68
2021/06/10 03:18:35;;;;;;;38.57;17.13;;;;;;;;;;5096305;28;20026;-68
2021/06/10 03:21:00;;;;;;;44.60;15.97;;;;;;;;;;5090912;28;20040;-68
2021/06/10 03:23:26;;;;;;;39.60;16.50;;;;;;;;;;5088365;28;20023;-68
2021/06/10 03:25:52;;;;;;;42.30;16.87;;;;;;;;;;5091400;28;20038;-68
2021/06/10 03:28:19;;;;;;;39.53;15.73;;;;;;;;;;5090982;28;20069;-68
2021/06/10 03:30:44;;;;;;;42.43;17.57;;;;;;;;;;5093180;28;20024;-68
2021/06/10 03:33:10;;;;;;;38.83;16.13;;;;;;;;;;5092802;28;20388;-68
2021/06/10 03:35:36;;;;;;;39.43;15.73;;;;;;;;;;5094276;28;20059;-68
2021/06/10 03:38:05;;;;;;;41.23;16.57;;;;;;;;;;5093398;28;20031;-68
2021/06/10 03:40:31;;;;;;;38.80;15.63;;;;;;;;;;5094899;28;20016;-68
2021/06/10 03:42:57;;;;;;;36.80;16.20;;;;;;;;;;5096941;28;20044;-68
2021/06/10 03:45:22;;;;;;;39.00;16.23;;;;;;;;;;5094791;28;20016;-68
2021/06/10 03:47:47;;;;;;;40.57;16.20;;;;;;;;;;5096179;28;20472;-68
2021/06/10 03:50:13;;;;;;;41.83;16.80;;;;;;;;;;5094354;28;20151;-68
2021/06/10 03:52:39;;;;;;;45.27;18.00;;;;;;;;;;5093827;28;20028;-68
2021/06/10 03:55:05;;;;;;;42.03;17.27;;;;;;;;;;5092516;28;20069;-68
2021/06/10 03:57:31;;;;;;;42.20;17.47;;;;;;;;;;5097709;28;20467;-68
2021/06/10 03:59:56;;;;;;;42.10;17.33;;;;;;;;;;5101569;28;20024;-68
2021/06/10 04:02:22;;;;;;;42.80;18.40;;;;;;;;;;5096890;28;20027;-68
2021/06/10 04:04:47;;;;;;;44.93;18.23;;;;;;;;;;5083366;28;20037;-69
2021/06/10 04:07:12;;;;;;;34.77;15.73;;;;;;;;;;5091533;28;20024;-69
2021/06/10 04:09:38;;;;;;;32.10;15.00;;;;;;;;;;5102524;28;20511;-69
2021/06/10 04:12:04;;;;;;;29.60;14.00;;;;;;;;;;5094668;28;20020;-70
2021/06/10 04:14:30;;;;;;;28.40;14.50;;;;;;;;;;5091118;28;20369;-69
2021/06/10 04:16:55;;;;;;;28.23;13.53;;;;;;;;;;5100665;28;20042;-69
2021/06/10 04:19:20;;;;;;;23.53;12.07;;;;;;;;;;5097687;28;20042;-70
2021/06/10 04:21:46;;;;;;;26.67;13.03;;;;;;;;;;5096648;28;20026;-70
2021/06/10 04:24:11;;;;;;;26.77;12.80;;;;;;;;;;5087564;28;20081;-71
2021/06/10 04:26:36;;;;;;;24.93;12.33;;;;;;;;;;5092798;28;20024;-71
2021/06/10 04:29:02;;;;;;;24.80;12.10;;;;;;;;;;5090884;28;20590;-71
2021/06/10 04:31:27;;;;;;;22.43;11.60;;;;;;;;;;5097877;28;20032;-71
2021/06/10 04:33:53;;;;;;;21.33;11.80;;;;;;;;;;5095530;28;20077;-71
2021/06/10 04:36:18;;;;;;;27.23;12.87;;;;;;;;;;5084681;28;20024;-72
2021/06/10 04:38:43;;;;;;;30.27;13.00;;;;;;;;;;5098324;28;20479;-72
2021/06/10 04:41:09;;;;;;;24.87;13.17;;;;;;;;;;5090286;28;20028;-72
2021/06/10 04:43:35;;;;;;;27.47;12.77;;;;;;;;;;5095629;28;20022;-73
2021/06/10 04:46:00;;;;;;;23.50;13.23;;;;;;;;;;5093596;28;20032;-72
2021/06/10 04:48:26;;;;;;;25.13;12.87;;;;;;;;;;5094110;28;20027;-73
2021/06/10 04:50:51;;;;;;;25.43;13.53;;;;;;;;;;5092911;28;20395;-73
2021/06/10 04:53:17;;;;;;;27.87;13.30;;;;;;;;;;5092304;28;20034;-73
2021/06/10 04:55:43;;;;;;;22.90;12.97;;;;;;;;;;5090502;28;20103;-74
2021/06/10 04:58:08;;;;;;;25.43;13.63;;;;;;;;;;5092479;28;20028;-73
2021/06/10 05:00:34;;;;;;;23.25;12.25;;;;;;;;;;5095334;28;20030;-72
2021/06/10 05:02:59;;;;;;;21.37;12.73;;;;;;;;;;5092711;28;20115;-72
2021/06/10 05:05:25;;;;;;;27.02;12.55;;;;;;;;;;5088557;28;20036;-72
2021/06/10 05:07:50;;;;;;;25.30;13.67;;;;;;;;;;5092637;28;20027;-72
2021/06/10 05:10:15;;;;;;;27.10;13.50;;;;;;;;;;5092338;28;20024;-73
2021/06/10 05:12:41;;;;;;;23.60;12.15;;;;;;;;;;5091627;28;20024;-73
2021/06/10 05:15:06;;;;;;;21.17;11.98;;;;;;;;;;5096079;28;20028;-73
2021/06/10 05:17:32;;;;;;;21.58;12.20;;;;;;;;;;5077599;28;20067;-73
2021/06/10 05:19:57;;;;;;;24.35;12.98;;;;;;;;;;5092079;28;20314;-73
2021/06/10 05:22:22;;;;;;;25.20;13.13;;;;;;;;;;5095829;28;20028;-74
2021/06/10 05:24:48;;;;;;;24.00;12.45;;;;;;;;;;5093784;28;20054;-74
2021/06/10 05:27:13;;;;;;;25.50;12.82;;;;;;;;;;5092998;28;20027;-75
2021/06/10 05:29:39;;;;;;;25.67;12.60;;;;;;;;;;5089851;28;20027;-75
2021/06/10 05:32:05;;;;;;;21.20;12.32;;;;;;;;;;5089241;28;20209;-75
2021/06/10 05:34:30;;;;;;;20.65;12.25;;;;;;;;;;5088472;28;20074;-75
2021/06/10 05:36:56;;;;;;;23.48;12.02;;;;;;;;;;5088222;28;20035;-75
2021/06/10 05:39:21;;;;;;;23.02;11.73;;;;;;;;;;5090621;28;20430;-76
2021/06/10 05:41:47;;;;;;;20.30;11.88;;;;;;;;;;5086515;28;20460;-76
2021/06/10 05:44:12;;;;;;;19.95;11.63;;;;;;;;;;5095429;28;20054;-77
2021/06/10 05:46:37;;;;;;;20.42;11.70;;;;;;;;;;5091731;28;21408;-77
2021/06/10 05:49:03;;;;;;;22.23;12.38;;;;;;;;;;5102038;28;20095;-78
2021/06/10 05:51:28;;;;;;;19.45;11.60;;;;;;;;;;5095459;28;20035;-78
2021/06/10 05:53:53;;;;;;;20.45;11.02;;;;;;;;;;5090763;28;20103;-77
2021/06/10 05:56:19;;;;;;;20.48;11.07;;;;;;;;;;5091816;28;20028;-77
2021/06/10 05:58:44;;;;;;;18.33;11.48;;;;;;;;;;5092983;28;20035;-77
2021/06/10 06:01:09;;;;;;;20.02;11.52;;;;;;;;;;5091788;28;20034;-78
2021/06/10 06:03:35;;;;;;;19.95;12.05;;;;;;;;;;5095654;28;20194;-78
2021/06/10 06:06:00;;;;;;;17.38;10.75;;;;;;;;;;5093270;28;20107;-78
2021/06/10 06:08:26;;;;;;;19.48;11.40;;;;;;;;;;5092803;28;20024;-77
2021/06/10 06:10:52;;;;;;;21.60;11.98;;;;;;;;;;5097313;28;20032;-77
2021/06/10 06:13:22;;;;;;;20.48;11.38;;;;;;;;;;5100676;28;20403;-77
2021/06/10 06:15:50;;;;;;;20.55;11.27;;;;;;;;;;5097648;28;20039;-77
2021/06/10 06:18:15;;;;;;;20.88;11.35;;;;;;;;;;5094721;28;20028;-78
2021/06/10 06:20:41;;;;;;;20.20;11.88;;;;;;;;;;5108764;28;20387;-78
2021/06/10 06:23:06;;;;;;;17.08;10.48;;;;;;;;;;5095439;28;20030;-79
2021/06/10 06:25:31;;;;;;;17.05;10.63;;;;;;;;;;5102469;28;20104;-79
2021/06/10 06:27:57;;;;;;;21.38;10.90;;;;;;;;;;5093150;28;20015;-78
2021/06/10 06:30:22;;;;;;;20.10;11.02;;;;;;;;;;5086996;28;20043;-79
2021/06/10 06:32:47;;;;;;;19.73;11.23;;;;;;;;;;5102313;28;20028;-79
2021/06/10 06:35:13;;;;;;;17.33;10.68;;;;;;;;;;5093738;28;20049;-78
2021/06/10 06:37:38;;;;;;;19.73;10.60;;;;;;;;;;5094333;28;20012;-78
2021/06/10 06:40:05;;;;;;;18.67;10.57;;;;;;;;;;5096660;28;20069;-78
2021/06/10 06:42:30;;;;;;;15.88;10.10;;;;;;;;;;5102740;28;20030;-78
2021/06/10 06:44:55;;;;;;;18.13;9.77;;;;;;;;;;5093273;28;20016;-78
2021/06/10 06:47:21;;;;;;;18.95;9.73;;;;;;;;;;5091923;28;20030;-77
2021/06/10 06:49:46;;;;;;;15.20;8.63;;;;;;;;;;5096716;28;20476;-77
2021/06/10 06:52:11;;;;;;;16.23;8.80;;;;;;;;;;5091028;28;20055;-77
2021/06/10 06:54:37;;;;;;;14.43;8.85;;;;;;;;;;5101538;28;20015;-76
2021/06/10 06:57:03;;;;;;;14.02;8.15;;;;;;;;;;5082871;28;20118;-76
2021/06/10 06:59:29;;;;;;;16.48;9.05;;;;;;;;;;5100112;28;20020;-75
2021/06/10 07:01:54;;;;;;;15.40;8.63;;;;;;;;;;5095397;28;20046;-78
2021/06/10 07:04:19;;;;;;;14.85;8.90;;;;;;;;;;5103441;28;20047;-77
2021/06/10 07:06:47;;;;;;;15.18;9.25;;;;;;;;;;5090758;28;20103;-76
2021/06/10 07:09:12;;;;;;;17.35;9.32;;;;;;;;;;5098200;28;20047;-77
2021/06/10 07:11:37;;;;;;;17.45;10.05;;;;;;;;;;5093361;28;20032;-77
2021/06/10 07:14:03;;;;;;;16.83;9.68;;;;;;;;;;5102307;28;20023;-78
2021/06/10 07:16:29;;;;;;;18.85;10.63;;;;;;;;;;5095389;28;20028;-78
2021/06/10 07:18:54;;;;;;;19.63;9.90;;;;;;;;;;5097412;28;20063;-78
2021/06/10 07:21:19;;;;;;;19.05;10.63;;;;;;;;;;5091245;28;20120;-77
2021/06/10 07:23:45;;;;;;;17.23;9.45;;;;;;;;;;5091628;28;20023;-77
2021/06/10 07:26:10;;;;;;;18.90;10.30;;;;;;;;;;5091013;28;20039;-78
2021/06/10 07:28:35;;;;;;;17.42;9.27;;;;;;;;;;5096641;28;20012;-78
2021/06/10 07:31:01;;;;;;;16.35;9.48;;;;;;;;;;5104800;28;20035;-78
2021/06/10 07:33:26;;;;;;;15.85;9.13;;;;;;;;;;5098916;28;20024;-77
2021/06/10 07:35:51;;;;;;;15.32;9.43;;;;;;;;;;5093810;28;20098;-76
2021/06/10 07:38:17;;;;;;;16.75;10.15;;;;;;;;;;5084253;28;20379;-76
2021/06/10 07:40:43;;;;;;;15.30;9.82;;;;;;;;;;5094172;28;20032;-76
2021/06/10 07:43:09;;;;;;;16.67;10.35;;;;;;;;;;5102382;28;20486;-75
2021/06/10 07:45:34;;;;;;;18.80;10.70;;;;;;;;;;5101022;28;20023;-77
2021/06/10 07:47:59;;;;;;;16.55;9.75;;;;;;;;;;5103884;28;20480;-78
2021/06/10 07:50:25;;;;;;;18.17;10.32;;;;;;;;;;5100706;28;20059;-77
2021/06/10 07:52:50;;;;;;;17.30;10.32;;;;;;;;;;5094302;28;20032;-77
2021/06/10 07:55:16;;;;;;;18.85;9.55;;;;;;;;;;5101448;28;20027;-78
2021/06/10 07:57:41;;;;;;;16.10;7.97;;;;;;;;;;5098839;28;20467;-76
2021/06/10 08:00:07;;;;;;;12.95;7.75;;;;;;;;;;5096776;28;20058;-75
2021/06/10 08:02:33;;;;;;;13.77;7.78;;;;;;;;;;5099065;28;20031;-75
2021/06/10 08:04:58;;;;;;;11.73;6.78;;;;;;;;;;5094059;28;20041;-75
2021/06/10 08:07:23;;;;;;;10.40;6.57;;;;;;;;;;5093938;28;20384;-74
2021/06/10 08:09:49;;;;;;;10.05;5.68;;;;;;;;;;5094694;28;20483;-73
2021/06/10 08:12:14;;;;;;;11.77;5.97;;;;;;;;;;5093846;28;20230;-74
2021/06/10 08:14:39;;;;;;;9.80;5.00;;;;;;;;;;5101650;28;20024;-74
2021/06/10 08:17:05;;;;;;;7.28;4.22;;;;;;;;;;5104019;28;20043;-73
2021/06/10 08:19:31;;;;;;;8.05;4.55;;;;;;;;;;5094523;28;20034;-74
2021/06/10 08:22:00;;;;;;;8.80;4.40;;;;;;;;;;5093346;28;20016;-74
2021/06/10 08:24:25;;;;;;;8.57;4.50;;;;;;;;;;5096014;28;20103;-75
2021/06/10 08:26:51;;;;;;;7.88;3.88;;;;;;;;;;5100596;28;20095;-75
2021/06/10 08:29:16;;;;;;;6.55;3.70;;;;;;;;;;5092816;28;20023;-77
2021/06/10 08:31:42;;;;;;;8.23;3.70;;;;;;;;;;5091965;28;20024;-76
2021/06/10 08:34:07;;;;;;;7.40;3.33;;;;;;;;;;5093641;28;20050;-77
2021/06/10 08:36:33;;;;;;;10.68;4.13;;;;;;;;;;5086587;28;20357;-76
2021/06/10 08:38:59;;;;;;;7.50;3.53;;;;;;;;;;5083558;28;20050;-76
2021/06/10 08:41:26;;;;;;;6.45;3.30;;;;;;;;;;5098994;28;20024;-77
2021/06/10 08:43:51;;;;;;;8.05;3.80;;;;;;;;;;5093381;28;20024;-76
2021/06/10 08:46:17;;;;;;;7.97;3.55;;;;;;;;;;5093213;28;20383;-76
2021/06/10 08:48:43;;;;;;;8.50;3.90;;;;;;;;;;5098115;28;20012;-76
2021/06/10 08:51:09;;;;;;;9.40;3.63;;;;;;;;;;5098771;28;20428;-76
2021/06/10 08:53:37;;;;;;;6.72;3.50;;;;;;;;;;5092599;28;20020;-78
2021/06/10 08:56:03;;;;;;;7.10;3.50;;;;;;;;;;5091032;28;20045;-76
2021/06/10 08:58:29;;;;;;;7.00;3.10;;;;;;;;;;5092580;28;20111;-76
2021/06/10 09:00:55;;;;;;;6.72;3.13;;;;;;;;;;5092784;28;20371;-77
2021/06/10 09:03:21;;;;;;;7.97;3.20;;;;;;;;;;5091823;28;20027;-78
2021/06/10 09:05:59;;;;;;;6.82;3.22;;;;;;;;;;5093011;28;20106;-75
2021/06/10 09:08:24;;;;;;;7.20;3.08;;;;;;;;;;5088175;28;20499;-76
2021/06/10 09:11:01;;;;;;;9.00;2.90;;;;;;;;;;5092615;28;20019;-77
2021/06/10 09:13:34;;;;;;;7.35;3.40;;;;;;;;;;5089248;28;20020;-77
2021/06/10 09:16:14;;;;;;;6.57;3.10;;;;;;;;;;5092614;28;20046;-75
2021/06/10 09:18:49;;;;;;;9.02;3.28;;;;;;;;;;5078798;28;20528;-74
2021/06/10 09:21:25;;;;;;;6.95;2.70;;;;;;;;;;5091596;28;20023;-75
2021/06/10 09:23:50;;;;;;;5.03;2.28;;;;;;;;;;5092185;28;20012;-75
2021/06/10 09:26:16;;;;;;;5.10;2.22;;;;;;;;;;5092324;28;20105;-75
2021/06/10 09:28:43;;;;;;;4.03;1.73;;;;;;;;;;5092051;28;20372;-75
2021/06/10 09:31:08;;;;;;;6.07;1.90;;;;;;;;;;5092171;28;20464;-73
2021/06/10 09:33:38;;;;;;;5.15;2.40;;;;;;;;;;5092735;28;20023;-72
2021/06/10 09:36:04;;;;;;;6.43;2.20;;;;;;;;;;5092086;28;20032;-72
2021/06/10 09:38:29;;;;;;;5.63;2.35;;;;;;;;;;5091635;28;20024;-71
2021/06/10 09:41:01;;;;;;;4.85;2.22;;;;;;;;;;5092188;28;20432;-72
2021/06/10 09:43:40;;;;;;;5.82;2.10;;;;;;;;;;5082132;28;20027;-72
2021/06/10 09:46:06;;;;;;;6.15;2.40;;;;;;;;;;5091984;28;20367;-71
2021/06/10 09:48:32;;;;;;;5.32;2.30;;;;;;;;;;5091666;28;20083;-70
2021/06/10 09:50:57;;;;;;;4.80;2.10;;;;;;;;;;5091755;28;20019;-70
2021/06/10 09:53:24;;;;;;;6.35;2.58;;;;;;;;;;5083781;28;20085;-70
2021/06/10 09:55:56;;;;;;;4.88;2.13;;;;;;;;;;5092031;28;20015;-70
2021/06/10 09:58:41;;;;;;;5.32;2.20;;;;;;;;;;5091904;28;20052;-70
2021/06/10 10:01:20;;;;;;;4.05;1.80;;;;;;;;;;5091584;28;20070;-70
2021/06/10 10:03:46;;;;;;;4.63;1.98;;;;;;;;;;5091686;28;20036;-69
2021/06/10 10:06:26;;;;;;;6.15;2.55;;;;;;;;;;5091354;28;20370;-69
2021/06/10 10:08:53;;;;;;;4.30;1.92;;;;;;;;;;5091173;28;20020;-69
2021/06/10 10:11:19;;;;;;;3.60;1.63;;;;;;;;;;5091218;28;20063;-68
2021/06/10 10:13:46;;;;;;;3.35;1.60;;;;;;;;;;5091731;28;20127;-68
2021/06/10 10:16:11;;;;;;;5.00;1.88;;;;;;;;;;5091387;28;20541;-68
2021/06/10 10:18:37;;;;;;;4.55;2.33;;;;;;;;;;5091686;28;20044;-69
2021/06/10 10:21:03;;;;;;;5.70;1.98;;;;;;;;;;5090976;28;20028;-68
2021/06/10 10:23:30;;;;;;;4.18;2.03;;;;;;;;;;5091287;28;20443;-68
2021/06/10 10:26:13;;;;;;;3.90;1.88;;;;;;;;;;5091578;28;20388;-68
2021/06/10 10:28:39;;;;;;;4.50;1.80;;;;;;;;;;5079832;28;20028;-68
2021/06/10 10:31:10;;;;;;;4.07;1.80;;;;;;;;;;5090393;28;20047;-68
2021/06/10 10:33:46;;;;;;;3.75;1.60;;;;;;;;;;5091279;28;20050;-68
2021/06/10 10:36:44;;;;;;;3.97;1.80;;;;;;;;;;5091110;28;20016;-68
2021/06/10 10:39:11;;;;;;;3.97;1.80;;;;;;;;;;5049161;28;20052;-68
2021/06/10 10:41:49;;;;;;;5.70;2.25;;;;;;;;;;5090865;28;20024;-68
2021/06/10 10:44:22;;;;;;;3.97;1.75;;;;;;;;;;5091343;28;20471;-67
2021/06/10 10:47:05;;;;;;;4.40;2.05;;;;;;;;;;5091186;28;20093;-67
2021/06/10 10:49:38;;;;;;;6.32;2.30;;;;;;;;;;5091574;28;20099;-69
2021/06/10 10:52:27;;;;;;;5.82;2.50;;;;;;;;;;5090622;28;20021;-69
2021/06/10 10:54:52;;;;;;;3.95;2.10;;;;;;;;;;5081842;28;20024;-68
2021/06/10 10:57:49;;;;;;;3.65;1.92;;;;;;;;;;5085727;28;20031;-67
2021/06/10 11:00:20;;;;;;;4.60;2.40;;;;;;;;;;5053341;28;20529;-67
2021/06/10 11:02:51;;;;;;;5.05;2.38;;;;;;;;;;5091373;28;20031;-69
2021/06/10 11:05:30;;;;;;;4.82;2.10;;;;;;;;;;5094298;28;20070;-67
2021/06/10 11:07:55;;;;;;;6.32;1.90;;;;;;;;;;5095047;28;20115;-67
2021/06/10 11:10:56;;;;;;;3.88;1.90;;;;;;;;;;5098148;28;20108;-67
2021/06/10 11:13:22;;;;;;;4.97;1.83;;;;;;;;;;5006223;28;20033;-68
2021/06/10 11:15:51;;;;;;;3.40;1.65;;;;;;;;;;5007798;28;20403;-67
2021/06/10 11:18:34;;;;;;;3.92;2.03;;;;;;;;;;5008454;28;20030;-67
2021/06/10 11:21:03;;;;;;;4.60;1.80;;;;;;;;;;5008093;28;20060;-67
2021/06/10 11:23:29;;;;;;;2.72;1.40;;;;;;;;;;5008516;28;20104;-67
2021/06/10 11:25:57;;;;;;;2.97;0.98;;;;;;;;;;5007288;28;20489;-67
2021/06/10 11:28:24;;;;;;;2.83;1.40;;;;;;;;;;5008247;28;20425;-67
2021/06/10 11:30:50;;;;;;;3.30;1.30;;;;;;;;;;5008582;28;20036;-67
2021/06/10 11:33:33;;;;;;;2.92;1.10;;;;;;;;;;5007948;28;20205;-67
2021/06/10 11:36:11;;;;;;;4.25;1.63;;;;;;;;;;5007929;28;20476;-67
2021/06/10 11:38:43;;;;;;;3.28;1.30;;;;;;;;;;5003072;28;20091;-67
2021/06/10 11:41:14;;;;;;;3.22;1.45;;;;;;;;;;5002728;28;20038;-67
2021/06/10 11:43:40;;;;;;;;;;;;;;;;;;5008340;28;20391;-67
2021/06/10 11:46:12;;;;;;;3.42;1.48;;;;;;;;;;4997325;28;19923;-67
2021/06/10 11:48:47;;;;;;;3.90;1.33;;;;;;;;;;5095893;28;20119;-66
2021/06/10 11:51:33;;;;;;;3.25;1.30;;;;;;;;;;5088020;28;20042;-66
2021/06/10 11:54:06;;;;;;;2.80;1.40;;;;;;;;;;5100457;28;20355;-66
2021/06/10 11:56:31;;;;;;;2.10;1.20;;;;;;;;;;5089343;28;20028;-66
2021/06/10 11:59:02;;;;;;;1.80;1.05;;;;;;;;;;5105239;28;20541;-66
2021/06/10 12:01:28;;;;;;;;;;;;;;;;;;5094842;28;20121;-66
2021/06/10 12:03:53;;;;;;;4.00;1.27;;;;;;;;;;5090887;28;19969;-66
2021/06/10 12:06:18;;;;;;;3.53;1.42;;;;;;;;;;5092514;28;20273;-66
2021/06/10 12:08:47;;;;;;;3.10;1.30;;;;;;;;;;5092480;28;20027;-66
2021/06/10 12:11:14;;;;;;;3.00;1.48;;;;;;;;;;5089937;28;20058;-66
2021/06/10 12:13:44;;;;;;;4.15;1.20;;;;;;;;;;5081484;28;20112;-66
2021/06/10 12:16:14;;;;;;;2.80;1.27;;;;;;;;;;5090053;28;20063;-66
2021/06/10 12:18:40;;;;;;;3.45;1.27;;;;;;;;;;5092779;28;20038;-66
2021/06/10 12:21:07;;;;;;;4.10;1.30;;;;;;;;;;5090209;28;20460;-66
2021/06/10 12:23:39;;;;;;;5.05;1.17;;;;;;;;;;5090284;28;20020;-66
2021/06/10 12:26:05;;;;;;;2.38;1.10;;;;;;;;;;5080305;28;20039;-66
2021/06/10 12:28:45;;;;;;;1.80;1.00;;;;;;;;;;5093674;28;20028;-66
2021/06/10 12:31:21;;;;;;;2.13;0.80;;;;;;;;;;5103507;28;20034;-66
2021/06/10 12:33:47;;;;;;;2.47;1.02;;;;;;;;;;5092808;28;20372;-66
2021/06/10 12:36:39;;;;;;;2.00;1.10;;;;;;;;;;5093320;28;20091;-66
2021/06/10 12:39:08;;;;;;;3.83;1.20;;;;;;;;;;5077642;28;20047;-66
2021/06/10 12:41:41;;;;;;;3.65;1.23;;;;;;;;;;5096459;28;20013;-66
2021/06/10 12:44:10;;;;;;;2.08;0.88;;;;;;;;;;5098080;28;20032;-66
2021/06/10 12:46:42;;;;;;;2.58;1.08;;;;;;;;;;5100433;28;20030;-66
2021/06/10 12:49:08;;;;;;;2.85;1.02;;;;;;;;;;5087108;28;20099;-66
2021/06/10 12:51:33;;;;;;;4.25;1.02;;;;;;;;;;5097289;28;20150;-66
2021/06/10 12:54:00;;;;;;;1.77;1.00;;;;;;;;;;5096510;28;20019;-66
2021/06/10 12:56:37;;;;;;;2.90;0.98;;;;;;;;;;5095253;28;20016;-66
2021/06/10 12:59:03;;;;;;;2.72;0.90;;;;;;;;;;5096737;28;20016;-65
2021/06/10 13:01:28;;;;;;;2.03;1.00;;;;;;;;;;5101182;28;20016;-66
2021/06/10 13:03:53;;;;;;;3.60;1.02;;;;;;;;;;5092503;28;20056;-65
2021/06/10 13:06:22;;;;;;;2.15;1.10;;;;;;;;;;5095722;28;20050;-66
2021/06/10 13:08:47;;;;;;;1.92;0.95;;;;;;;;;;5094677;28;20016;-65
2021/06/10 13:11:17;;;;;;;3.17;1.15;;;;;;;;;;5094686;28;20479;-65
2021/06/10 13:13:42;;;;;;;3.65;1.20;;;;;;;;;;5088749;28;20107;-65
2021/06/10 13:16:07;;;;;;;3.00;1.10;;;;;;;;;;5085232;28;20170;-65
2021/06/10 13:18:33;;;;;;;3.95;1.10;;;;;;;;;;5087891;28;20569;-65
2021/06/10 13:21:00;;;;;;;1.88;0.90;;;;;;;;;;5093475;28;20023;-66
2021/06/10 13:23:50;;;;;;;1.73;0.85;;;;;;;;;;5093000;28;20024;-65
2021/06/10 13:26:20;;;;;;;2.45;1.10;;;;;;;;;;5084009;28;20040;-66
2021/06/10 13:28:48;;;;;;;2.83;0.90;;;;;;;;;;5093214;28;20011;-65
2021/06/10 13:31:36;;;;;;;1.90;0.90;;;;;;;;;;5093644;28;20297;-65
2021/06/10 13:34:31;;;;;;;2.05;0.95;;;;;;;;;;5086987;28;20404;-66
2021/06/10 13:36:58;;;;;;;1.98;0.90;;;;;;;;;;5089621;28;20421;-66
2021/06/10 13:39:24;;;;;;;3.15;1.10;;;;;;;;;;5091251;28;20534;-65
2021/06/10 13:41:51;;;;;;;2.08;1.08;;;;;;;;;;5088921;28;20024;-66
2021/06/10 13:44:16;;;;;;;2.42;1.00;;;;;;;;;;5092329;28;20077;-66
2021/06/10 13:46:42;;;;;;;2.22;0.90;;;;;;;;;;5089331;28;20027;-65
2021/06/10 13:49:07;;;;;;;2.15;1.02;;;;;;;;;;5087217;28;20020;-65
2021/06/10 13:51:32;;;;;;;1.02;0.70;;;;;;;;;;5085047;28;20024;-65
2021/06/10 13:53:58;;;;;;;3.03;0.80;;;;;;;;;;5097455;28;20028;-66
2021/06/10 13:56:26;;;;;;;4.18;0.95;;;;;;;;;;5089440;28;20125;-66
2021/06/10 13:58:51;;;;;;;1.77;0.80;;;;;;;;;;5086142;28;20129;-66
2021/06/10 14:01:16;;;;;;;2.22;0.85;;;;;;;;;;5087946;28;20103;-66
2021/06/10 14:03:42;;;;;;;3.22;1.02;;;;;;;;;;5092378;28;20043;-66
2021/06/10 14:06:07;;;;;;;1.77;0.73;;;;;;;;;;5097128;28;20040;-67
2021/06/10 14:08:34;;;;;;;1.60;0.73;;;;;;;;;;5088580;28;20411;-67
2021/06/10 14:10:59;;;;;;;1.50;0.80;;;;;;;;;;5089066;28;20038;-66
2021/06/10 14:13:25;;;;;;;1.42;0.70;;;;;;;;;;5088469;28;20387;-66
2021/06/10 14:15:50;;;;;;;4.15;0.90;;;;;;;;;;5087365;28;20456;-66
2021/06/10 14:18:15;;;;;;;1.67;0.77;;;;;;;;;;5091300;28;20362;-66
2021/06/10 14:20:41;;;;;;;1.77;0.88;;;;;;;;;;5089549;28;20028;-67
2021/06/10 14:23:07;;;;;;;2.70;1.08;;;;;;;;;;5087875;28;20028;-66
2021/06/10 14:25:33;;;;;;;1.90;0.98;;;;;;;;;;5088028;28;20059;-66
2021/06/10 14:28:01;;;;;;;2.08;0.90;;;;;;;;;;5087131;28;20484;-66
2021/06/10 14:30:50;;;;;;;2.25;0.90;;;;;;;;;;5095324;28;20145;-66
2021/06/10 14:33:16;;;;;;;2.10;0.80;;;;;;;;;;5088436;28;20059;-66
2021/06/10 14:35:41;;;;;;;2.50;0.90;;;;;;;;;;5099265;28;20028;-67